Time;durP1;ratioP1;P1;durP2;ratioP2;P2;SDS_P1;SDS_P2;PMS_P1;PMS_P2;Temp;Humidity;BMP_temperature;BMP_pressure;BME280_temperature;BME280_humidity;BME280_pressure;Samples;Min_cycle;Max_cycle;Signal;HPM_P1;HPM_P2
2022/06/01 00:01:44;;;;;;;6.00;5.50;;;11.70;99.90;;;;;;5061418;28;20440;-39
2022/06/01 00:04:10;;;;;;;6.60;6.10;;;11.70;99.90;;;;;;5055800;28;20483;-39
2022/06/01 00:06:36;;;;;;;7.20;6.10;;;11.70;99.90;;;;;;5061100;28;20451;-39
2022/06/01 00:09:02;;;;;;;6.37;5.87;;;11.70;99.90;;;;;;5068886;28;20208;-39
2022/06/01 00:11:28;;;;;;;6.47;5.97;;;11.60;99.90;;;;;;5063387;28;20185;-39
2022/06/01 00:13:53;;;;;;;6.40;5.90;;;11.60;99.90;;;;;;5068636;28;20423;-39
2022/06/01 00:16:19;;;;;;;5.57;5.07;;;11.60;99.90;;;;;;5064738;28;20190;-40
2022/06/01 00:18:45;;;;;;;6.27;5.77;;;11.80;99.90;;;;;;5052297;28;20685;-39
2022/06/01 00:21:11;;;;;;;6.00;5.40;;;11.70;99.90;;;;;;5051822;28;20435;-39
2022/06/01 00:23:36;;;;;;;6.50;5.90;;;11.70;99.90;;;;;;5066687;28;20209;-39
2022/06/01 00:26:03;;;;;;;6.40;5.90;;;11.90;99.90;;;;;;5067148;28;20201;-39
2022/06/01 00:28:29;;;;;;;6.17;5.60;;;11.60;99.90;;;;;;5068299;28;20532;-39
2022/06/01 00:30:55;;;;;;;6.70;6.20;;;11.70;99.90;;;;;;5068711;28;20466;-39
2022/06/01 00:33:21;;;;;;;7.00;6.40;;;11.60;99.90;;;;;;5052268;28;20863;-39
2022/06/01 00:35:47;;;;;;;9.33;6.67;;;11.60;99.90;;;;;;5055706;28;20227;-39
2022/06/01 00:38:13;;;;;;;7.47;6.77;;;11.70;99.90;;;;;;5066553;28;20427;-39
2022/06/01 00:40:39;;;;;;;7.37;6.77;;;11.60;99.90;;;;;;5062763;28;20586;-39
2022/06/01 00:43:26;;;;;;;6.70;6.20;;;11.70;99.90;;;;;;5070400;28;20418;-39
2022/06/01 00:45:52;;;;;;;8.07;7.30;;;11.60;99.90;;;;;;5068862;28;20838;-39
2022/06/01 00:48:24;;;;;;;6.97;6.37;;;11.60;99.90;;;;;;5051518;28;20471;-39
2022/06/01 00:50:50;;;;;;;6.80;6.00;;;11.60;99.90;;;;;;5059166;28;20431;-39
2022/06/01 00:53:29;;;;;;;7.90;7.30;;;11.70;99.90;;;;;;5071452;28;20427;-39
2022/06/01 00:56:00;;;;;;;7.23;6.53;;;11.60;99.90;;;;;;5066733;28;20461;-41
2022/06/01 00:58:30;;;;;;;7.40;6.70;;;11.60;99.90;;;;;;5071889;28;20434;-40
2022/06/01 01:00:57;;;;;;;6.70;6.20;;;11.60;99.90;;;;;;5072009;28;20437;-39
2022/06/01 01:03:26;;;;;;;7.17;6.57;;;11.60;99.90;;;;;;5056919;28;20819;-40
2022/06/01 01:06:01;;;;;;;7.97;7.10;;;11.50;99.90;;;;;;5060357;28;20424;-39
2022/06/01 01:08:27;;;;;;;6.83;6.23;;;11.60;99.90;;;;;;5066439;28;21324;-39
2022/06/01 01:10:52;;;;;;;6.93;6.30;;;11.60;99.90;;;;;;5070488;28;20450;-39
2022/06/01 01:13:18;;;;;;;6.67;6.17;;;11.50;99.90;;;;;;5071763;28;20440;-41
2022/06/01 01:15:55;;;;;;;6.73;6.20;;;11.50;99.90;;;;;;5072103;28;20188;-41
2022/06/01 01:18:28;;;;;;;7.67;6.80;;;11.50;99.90;;;;;;5056378;28;20190;-39
2022/06/01 01:21:01;;;;;;;7.70;7.07;;;11.40;99.90;;;;;;5050785;28;20489;-39
2022/06/01 01:23:51;;;;;;;7.77;7.03;;;11.50;99.90;;;;;;5069710;28;20495;-39
2022/06/01 01:26:17;;;;;;;7.63;6.90;;;11.40;99.90;;;;;;5061559;28;20478;-40
2022/06/01 01:28:43;;;;;;;7.67;6.97;;;11.30;99.90;;;;;;5071427;28;20423;-39
2022/06/01 01:31:20;;;;;;;7.67;7.07;;;11.20;99.90;;;;;;5056875;28;20502;-39
2022/06/01 01:33:48;;;;;;;8.67;7.83;;;11.10;99.90;;;;;;5056767;28;20990;-39
2022/06/01 01:36:16;;;;;;;8.60;7.80;;;11.00;99.90;;;;;;5055461;28;20431;-39
2022/06/01 01:38:56;;;;;;;8.80;8.10;;;11.00;99.90;;;;;;5071048;28;20514;-39
2022/06/01 01:41:28;;;;;;;8.40;7.70;;;11.00;99.90;;;;;;5066023;28;20431;-39
2022/06/01 01:44:04;;;;;;;8.97;8.27;;;10.80;99.90;;;;;;5071552;28;20600;-39
2022/06/01 01:46:31;;;;;;;8.60;7.90;;;11.00;99.90;;;;;;5062877;28;20767;-39
2022/06/01 01:48:57;;;;;;;9.10;8.20;;;11.00;99.90;;;;;;5051854;28;20549;-39
2022/06/01 01:51:25;;;;;;;9.03;8.13;;;11.10;99.90;;;;;;5056855;28;20499;-40
2022/06/01 01:53:54;;;;;;;9.60;8.73;;;11.20;99.90;;;;;;5064821;28;21105;-39
2022/06/01 01:56:28;;;;;;;8.93;8.13;;;11.00;99.90;;;;;;5069597;28;20589;-39
2022/06/01 01:59:21;;;;;;;9.50;8.60;;;11.00;99.90;;;;;;5070609;28;20619;-39
2022/06/01 02:01:55;;;;;;;9.13;8.23;;;11.00;99.90;;;;;;5069379;28;20458;-39
2022/06/01 02:07:41;;;;;;;10.10;9.20;;;11.10;99.90;;;;;;5056916;28;20419;-39
2022/06/01 02:12:52;;;;;;;10.50;9.53;;;11.00;99.90;;;;;;5061756;28;20433;-40
2022/06/01 02:15:44;;;;;;;10.60;9.70;;;11.00;99.90;;;;;;5069693;28;20431;-39
2022/06/01 02:18:15;;;;;;;10.10;9.10;;;11.10;99.90;;;;;;5057906;28;20451;-39
2022/06/01 02:20:54;;;;;;;11.00;9.93;;;11.00;99.90;;;;;;5055623;28;20432;-39
2022/06/01 02:23:20;;;;;;;10.40;9.40;;;11.30;99.90;;;;;;5067549;28;20498;-39
2022/06/01 02:25:52;;;;;;;10.90;9.87;;;11.10;99.90;;;;;;5066816;28;20464;-39
2022/06/01 02:28:18;;;;;;;9.60;8.80;;;11.00;99.90;;;;;;5067573;28;20178;-40
2022/06/01 02:30:45;;;;;;;10.10;9.23;;;10.90;99.90;;;;;;5070626;28;20472;-39
2022/06/01 02:33:19;;;;;;;10.00;9.13;;;10.90;99.90;;;;;;5061170;28;20256;-39
2022/06/01 02:35:49;;;;;;;11.73;10.70;;;10.80;99.90;;;;;;5053151;28;20464;-39
2022/06/01 02:38:20;;;;;;;11.57;10.43;;;10.90;99.90;;;;;;5057208;28;20427;-39
2022/06/01 02:40:47;;;;;;;10.27;9.40;;;10.80;99.90;;;;;;5066989;28;20420;-40
2022/06/01 02:43:13;;;;;;;10.90;10.00;;;10.80;99.90;;;;;;5070496;28;20430;-40
2022/06/01 02:45:40;;;;;;;10.70;9.60;;;11.00;99.90;;;;;;5068504;28;20427;-39
2022/06/01 02:48:06;;;;;;;10.73;9.80;;;10.70;99.90;;;;;;5049755;28;20455;-39
2022/06/01 02:50:34;;;;;;;11.07;10.07;;;10.80;99.90;;;;;;5052829;28;20498;-39
2022/06/01 02:53:00;;;;;;;11.50;10.40;;;10.80;99.90;;;;;;5062761;28;20782;-39
2022/06/01 02:55:26;;;;;;;11.73;10.63;;;10.70;99.90;;;;;;5068337;28;20438;-39
2022/06/01 02:57:52;;;;;;;12.17;11.07;;;10.70;99.90;;;;;;5055733;28;20422;-40
2022/06/01 03:00:38;;;;;;;11.27;10.17;;;10.70;99.90;;;;;;5069952;28;20439;-39
2022/06/01 03:03:06;;;;;;;11.50;10.47;;;10.60;99.90;;;;;;5060273;28;20590;-39
2022/06/01 03:05:36;;;;;;;11.40;10.30;;;10.70;99.90;;;;;;5056394;28;20424;-39
2022/06/01 03:08:03;;;;;;;12.33;11.13;;;10.60;99.90;;;;;;5059984;28;20435;-41
2022/06/01 03:10:30;;;;;;;12.40;11.20;;;10.60;99.90;;;;;;5069886;28;20443;-39
2022/06/01 03:12:56;;;;;;;13.00;11.80;;;10.70;99.90;;;;;;5060857;28;20997;-39
2022/06/01 03:15:23;;;;;;;13.47;12.27;;;10.60;99.90;;;;;;5069882;28;20891;-40
2022/06/01 03:17:49;;;;;;;13.00;11.80;;;10.70;99.90;;;;;;5063046;28;20901;-40
2022/06/01 03:20:18;;;;;;;14.33;13.03;;;10.70;99.90;;;;;;5054961;28;20499;-39
2022/06/01 03:22:45;;;;;;;12.60;11.30;;;10.70;99.90;;;;;;5057028;28;20427;-40
2022/06/01 03:25:15;;;;;;;13.80;12.40;;;10.90;99.90;;;;;;5068260;28;20463;-40
2022/06/01 03:27:40;;;;;;;12.83;11.57;;;10.80;99.90;;;;;;5049274;28;20432;-39
2022/06/01 03:30:10;;;;;;;14.13;12.83;;;10.80;99.90;;;;;;5059823;28;20476;-39
2022/06/01 03:32:36;;;;;;;13.83;12.53;;;10.70;99.90;;;;;;5065732;28;20196;-39
2022/06/01 03:35:02;;;;;;;14.93;13.47;;;10.70;99.90;;;;;;5050330;28;20445;-39
2022/06/01 03:37:28;;;;;;;13.67;12.27;;;10.70;99.90;;;;;;5052075;28;20428;-39
2022/06/01 03:39:53;;;;;;;14.07;12.53;;;10.80;99.90;;;;;;5042596;28;20439;-41
2022/06/01 03:42:19;;;;;;;13.03;11.93;;;10.60;99.90;;;;;;5050153;28;20192;-40
2022/06/01 03:47:29;;;;;;;13.43;12.17;;;10.70;99.90;;;;;;5052075;28;20759;-39
2022/06/01 03:49:54;;;;;;;13.83;12.43;;;10.60;99.90;;;;;;5047712;28;20463;-39
2022/06/01 03:52:20;;;;;;;13.33;12.03;;;10.80;99.90;;;;;;5055324;28;20269;-39
2022/06/01 03:54:46;;;;;;;12.53;11.23;;;10.80;99.90;;;;;;5052158;28;20186;-39
2022/06/01 03:57:12;;;;;;;13.33;12.03;;;10.70;99.90;;;;;;5054510;28;20216;-39
2022/06/01 03:59:38;;;;;;;14.70;13.33;;;10.70;99.90;;;;;;5069215;28;20510;-40
2022/06/01 04:02:06;;;;;;;12.77;11.57;;;10.70;99.90;;;;;;5068943;28;20517;-39
2022/06/01 04:04:33;;;;;;;14.27;12.83;;;10.70;99.90;;;;;;5056519;28;20901;-40
2022/06/01 04:06:59;;;;;;;13.93;12.53;;;10.80;99.90;;;;;;5052207;28;20473;-39
2022/06/01 04:09:24;;;;;;;14.40;12.90;;;10.80;99.90;;;;;;5069237;28;20427;-39
2022/06/01 04:11:51;;;;;;;13.93;12.60;;;10.80;99.90;;;;;;5063523;28;20424;-40
2022/06/01 04:14:20;;;;;;;13.90;12.57;;;10.90;99.90;;;;;;5068693;28;20203;-41
2022/06/01 04:16:47;;;;;;;16.73;14.80;;;10.80;99.90;;;;;;5068246;28;20473;-39
2022/06/01 04:19:13;;;;;;;14.67;13.17;;;11.10;99.90;;;;;;5054313;28;20852;-43
2022/06/01 04:21:43;;;;;;;14.50;13.00;;;10.90;99.90;;;;;;5054256;28;20471;-40
2022/06/01 04:24:13;;;;;;;13.83;12.53;;;10.90;99.90;;;;;;5051681;28;20475;-39
2022/06/01 04:26:39;;;;;;;13.53;12.27;;;11.00;99.90;;;;;;5052232;28;20423;-39
2022/06/01 04:29:05;;;;;;;18.20;13.90;;;11.10;99.90;;;;;;5068739;28;20431;-39
2022/06/01 04:31:31;;;;;;;15.00;13.50;;;11.00;99.90;;;;;;5068840;28;20894;-39
2022/06/01 04:33:57;;;;;;;13.97;12.70;;;11.10;99.90;;;;;;5057087;28;20591;-39
2022/06/01 04:36:23;;;;;;;14.57;13.10;;;11.00;99.90;;;;;;5051629;28;20462;-40
2022/06/01 04:38:48;;;;;;;14.30;12.80;;;10.90;99.90;;;;;;5059024;28;20246;-41
2022/06/01 04:41:14;;;;;;;14.33;13.03;;;10.90;99.90;;;;;;5059586;28;20276;-39
2022/06/01 04:43:40;;;;;;;15.43;13.87;;;10.90;99.90;;;;;;5043539;28;20227;-39
2022/06/01 04:46:05;;;;;;;15.07;13.53;;;10.80;99.90;;;;;;5046788;28;20200;-39
2022/06/01 04:48:31;;;;;;;14.57;12.70;;;10.80;99.90;;;;;;5048600;28;20625;-40
2022/06/01 04:50:58;;;;;;;13.97;12.70;;;11.00;99.90;;;;;;5055983;28;20196;-40
2022/06/01 04:53:24;;;;;;;15.33;13.83;;;10.90;99.90;;;;;;5059260;28;20749;-39
2022/06/01 04:55:50;;;;;;;15.10;13.70;;;11.00;99.90;;;;;;5056441;28;20451;-42
2022/06/01 04:58:16;;;;;;;16.67;14.97;;;10.90;99.90;;;;;;5057226;28;20434;-40
2022/06/01 05:00:43;;;;;;;13.43;12.10;;;11.00;99.90;;;;;;5068763;28;20427;-41
2022/06/01 05:03:09;;;;;;;14.23;12.90;;;11.30;99.90;;;;;;5064382;28;20454;-39
2022/06/01 05:05:37;;;;;;;14.17;12.70;;;11.20;99.90;;;;;;5063622;28;20994;-39
2022/06/01 05:08:03;;;;;;;14.93;13.50;;;11.30;99.90;;;;;;5050503;28;20523;-40
2022/06/01 05:10:29;;;;;;;14.67;13.20;;;11.60;99.90;;;;;;5066325;28;20446;-39
2022/06/01 05:12:55;;;;;;;14.07;12.57;;;11.50;99.90;;;;;;5066184;28;20431;-39
2022/06/01 05:15:21;;;;;;;13.73;12.43;;;11.70;99.90;;;;;;5068400;28;20200;-39
2022/06/01 05:17:46;;;;;;;13.40;12.20;;;11.80;99.90;;;;;;5060409;28;20193;-40
2022/06/01 05:20:13;;;;;;;13.47;12.17;;;12.00;99.90;;;;;;5050852;28;20504;-40
2022/06/01 05:22:40;;;;;;;13.70;12.27;;;12.00;99.90;;;;;;5055517;28;20627;-42
2022/06/01 05:25:07;;;;;;;14.03;12.60;;;12.20;99.90;;;;;;5068980;28;20467;-40
2022/06/01 05:27:32;;;;;;;13.97;12.57;;;12.20;99.90;;;;;;5062071;28;20531;-40
2022/06/01 05:29:58;;;;;;;14.90;13.20;;;12.30;99.90;;;;;;5052204;28;21034;-41
2022/06/01 05:32:24;;;;;;;14.50;13.10;;;12.40;99.90;;;;;;5049702;28;20182;-40
2022/06/01 05:34:50;;;;;;;13.50;12.20;;;12.50;99.90;;;;;;5053866;28;20436;-41
2022/06/01 05:37:15;;;;;;;13.13;11.93;;;12.60;99.90;;;;;;5052647;28;20193;-41
2022/06/01 05:39:41;;;;;;;14.53;13.03;;;12.70;99.90;;;;;;5061062;28;20204;-45
2022/06/01 05:42:07;;;;;;;14.70;12.50;;;12.70;99.90;;;;;;5062858;28;20441;-40
2022/06/01 05:44:33;;;;;;;15.50;13.90;;;12.90;99.90;;;;;;5053771;28;20575;-40
2022/06/01 05:47:01;;;;;;;14.80;13.40;;;13.00;99.90;;;;;;5051129;28;20424;-41
2022/06/01 05:49:27;;;;;;;14.93;13.30;;;13.10;99.90;;;;;;5051949;28;20247;-40
2022/06/01 05:51:53;;;;;;;15.17;13.77;;;13.30;99.90;;;;;;5056224;28;20428;-39
2022/06/01 05:54:19;;;;;;;16.23;14.70;;;13.50;99.90;;;;;;5054852;28;20434;-40
2022/06/01 05:56:46;;;;;;;17.90;15.17;;;13.60;99.90;;;;;;5070859;28;20860;-39
2022/06/01 05:59:12;;;;;;;14.90;13.40;;;13.60;99.90;;;;;;5070335;28;20428;-39
2022/06/01 06:01:38;;;;;;;16.13;14.57;;;13.60;99.90;;;;;;5060335;28;20494;-42
2022/06/01 06:04:05;;;;;;;16.80;15.10;;;13.40;99.90;;;;;;5048694;28;20630;-40
2022/06/01 06:06:31;;;;;;;15.33;13.90;;;13.50;99.90;;;;;;5052752;28;20519;-40
2022/06/01 06:09:00;;;;;;;16.37;14.67;;;13.70;99.90;;;;;;5051726;28;20436;-40
2022/06/01 06:11:28;;;;;;;16.03;13.67;;;13.80;99.90;;;;;;5053883;28;20821;-40
2022/06/01 06:13:55;;;;;;;16.77;13.87;;;14.00;99.90;;;;;;5054236;28;20427;-41
2022/06/01 06:16:22;;;;;;;17.20;15.10;;;14.20;99.90;;;;;;5070988;28;20439;-40
2022/06/01 06:18:48;;;;;;;16.10;14.63;;;14.30;99.90;;;;;;5066728;28;20440;-40
2022/06/01 06:21:14;;;;;;;16.83;15.10;;;14.20;99.90;;;;;;5056439;28;20456;-40
2022/06/01 06:23:40;;;;;;;15.30;13.67;;;14.20;99.90;;;;;;5057685;28;20548;-42
2022/06/01 06:26:06;;;;;;;15.23;13.63;;;14.20;99.90;;;;;;5070894;28;20185;-39
2022/06/01 06:28:32;;;;;;;15.77;14.13;;;14.50;99.90;;;;;;5063628;28;20681;-41
2022/06/01 06:30:58;;;;;;;14.30;12.90;;;14.60;99.90;;;;;;5070838;28;20213;-39
2022/06/01 06:33:24;;;;;;;15.70;14.10;;;14.80;99.90;;;;;;5069545;28;20458;-40
2022/06/01 06:36:07;;;;;;;13.30;11.80;;;15.00;99.90;;;;;;5050050;28;20198;-42
2022/06/01 06:38:36;;;;;;;13.77;11.53;;;15.20;99.90;;;;;;5053690;28;20939;-40
2022/06/01 06:41:04;;;;;;;13.57;11.50;;;15.40;99.90;;;;;;5067141;28;20473;-39
2022/06/01 06:43:31;;;;;;;13.40;12.00;;;15.50;99.90;;;;;;5068275;28;20427;-41
2022/06/01 06:46:01;;;;;;;13.80;12.50;;;15.60;99.90;;;;;;5066430;28;20781;-42
2022/06/01 06:48:28;;;;;;;13.50;12.10;;;15.70;99.90;;;;;;5050328;28;20489;-43
2022/06/01 06:50:55;;;;;;;12.70;11.10;;;15.80;99.90;;;;;;5047940;28;20962;-39
2022/06/01 06:53:21;;;;;;;13.20;11.13;;;15.90;99.90;;;;;;5047836;28;21027;-40
2022/06/01 06:55:47;;;;;;;11.97;10.67;;;15.90;99.90;;;;;;5049017;28;20448;-40
2022/06/01 06:58:13;;;;;;;13.60;10.57;;;15.70;99.90;;;;;;5049201;28;20465;-40
2022/06/01 07:00:39;;;;;;;10.53;8.93;;;15.70;99.90;;;;;;5050991;28;21167;-39
2022/06/01 07:03:05;;;;;;;9.30;8.40;;;15.40;99.90;;;;;;5050120;28;20193;-39
2022/06/01 07:08:17;;;;;;;10.27;7.83;;;15.30;99.90;;;;;;5054348;28;21167;-40
2022/06/01 07:10:42;;;;;;;9.23;7.63;;;15.40;99.90;;;;;;5070247;28;20423;-42
2022/06/01 07:13:08;;;;;;;8.17;7.40;;;15.60;99.90;;;;;;5062827;28;20443;-39
2022/06/01 07:15:35;;;;;;;7.73;6.97;;;15.60;99.90;;;;;;5070031;28;20189;-40
2022/06/01 07:18:05;;;;;;;9.23;7.63;;;15.70;99.90;;;;;;5059357;28;20460;-40
2022/06/01 07:20:31;;;;;;;8.17;6.90;;;15.50;99.90;;;;;;5051422;28;20443;-39
2022/06/01 07:22:57;;;;;;;10.60;7.57;;;15.40;99.90;;;;;;5065291;28;20424;-40
2022/06/01 07:25:24;;;;;;;9.77;7.40;;;15.50;99.90;;;;;;5056770;28;20573;-39
2022/06/01 07:27:50;;;;;;;8.97;5.60;;;15.60;99.90;;;;;;5065790;28;20914;-39
2022/06/01 07:30:17;;;;;;;6.07;5.47;;;15.70;99.90;;;;;;5069370;28;20506;-40
2022/06/01 07:32:47;;;;;;;5.63;5.13;;;15.80;99.90;;;;;;5069476;28;20528;-40
2022/06/01 07:35:13;;;;;;;5.37;4.17;;;15.80;99.90;;;;;;5058324;28;20435;-41
2022/06/01 07:43:10;;;;;;;7.03;4.20;;;16.20;99.90;;;;;;5044792;28;20935;-39
2022/06/01 07:45:43;;;;;;;5.23;3.63;;;16.10;99.90;;;;;;5054346;28;20467;-39
2022/06/01 07:48:09;;;;;;;4.37;4.00;;;16.00;99.90;;;;;;5043420;28;20418;-40
2022/06/01 07:50:36;;;;;;;5.10;4.60;;;15.80;99.90;;;;;;5051429;28;20806;-39
2022/06/01 07:53:06;;;;;;;5.63;5.00;;;15.80;99.90;;;;;;5055003;28;20423;-39
2022/06/01 07:55:32;;;;;;;5.23;4.67;;;15.90;99.90;;;;;;5063757;28;20518;-39
2022/06/01 07:57:58;;;;;;;5.30;4.80;;;16.00;99.90;;;;;;5065017;28;20798;-39
2022/06/01 08:00:24;;;;;;;5.57;4.80;;;16.00;99.90;;;;;;5064200;28;20427;-37
2022/06/01 08:02:50;;;;;;;6.40;5.17;;;16.10;99.90;;;;;;5069362;28;20203;-39
2022/06/01 08:05:18;;;;;;;5.03;4.53;;;16.20;99.90;;;;;;5058870;28;20981;-40
2022/06/01 08:07:44;;;;;;;5.10;4.60;;;16.40;99.90;;;;;;5045665;28;20182;-39
2022/06/01 08:10:13;;;;;;;7.23;6.53;;;16.20;99.90;;;;;;5064124;28;20819;-39
2022/06/01 08:15:23;;;;;;;5.20;4.70;;;15.80;99.90;;;;;;5066683;28;20422;-41
2022/06/01 08:17:49;;;;;;;5.20;4.80;;;15.90;99.90;;;;;;5068504;28;20473;-42
2022/06/01 08:20:15;;;;;;;6.00;5.40;;;15.80;99.90;;;;;;5062992;28;20504;-40
2022/06/01 08:22:42;;;;;;;6.20;5.60;;;15.90;99.90;;;;;;5056420;28;20185;-39
2022/06/01 08:25:10;;;;;;;7.17;5.77;;;15.80;99.90;;;;;;5056861;28;20561;-39
2022/06/01 08:27:35;;;;;;;6.83;5.87;;;15.70;99.90;;;;;;5068380;28;20990;-39
2022/06/01 08:30:02;;;;;;;6.50;5.57;;;15.70;99.90;;;;;;5067615;28;20432;-39
2022/06/01 08:32:27;;;;;;;6.40;5.90;;;15.80;99.90;;;;;;5068986;28;20280;-40
2022/06/01 08:34:53;;;;;;;7.37;6.17;;;15.80;99.90;;;;;;5062866;28;20540;-39
2022/06/01 08:37:19;;;;;;;5.27;4.73;;;15.80;99.90;;;;;;5050395;28;20801;-39
2022/06/01 08:39:44;;;;;;;5.50;5.00;;;15.90;99.90;;;;;;5058896;28;20197;-39
2022/06/01 08:42:16;;;;;;;7.17;6.13;;;15.80;99.90;;;;;;5068795;28;20196;-40
2022/06/01 08:44:43;;;;;;;6.40;5.70;;;15.70;99.90;;;;;;5058168;28;20212;-40
2022/06/01 08:47:15;;;;;;;6.60;5.90;;;15.60;99.90;;;;;;5052506;28;20462;-39
2022/06/01 08:49:41;;;;;;;6.03;5.53;;;15.60;99.90;;;;;;5057033;28;20436;-42
2022/06/01 08:52:07;;;;;;;5.20;4.80;;;15.50;99.90;;;;;;5055782;28;20424;-39
2022/06/01 08:54:33;;;;;;;5.77;5.23;;;15.60;99.90;;;;;;5054329;28;20262;-39
2022/06/01 08:57:11;;;;;;;5.63;5.13;;;15.70;99.90;;;;;;5067873;28;20447;-39
2022/06/01 08:59:56;;;;;;;5.60;5.10;;;15.60;99.90;;;;;;5065166;28;20648;-39
2022/06/01 09:02:59;;;;;;;6.00;5.40;;;15.70;99.90;;;;;;5072542;28;20502;-41
2022/06/01 09:05:47;;;;;;;5.80;5.30;;;15.70;99.90;;;;;;5065900;28;20561;-39
2022/06/01 09:08:29;;;;;;;5.90;5.10;;;15.90;99.90;;;;;;5052668;28;20416;-39
2022/06/01 09:11:02;;;;;;;5.63;5.13;;;16.10;99.90;;;;;;5057319;28;20479;-40
2022/06/01 09:13:58;;;;;;;5.87;5.07;;;16.20;99.90;;;;;;5070713;28;20783;-41
2022/06/01 09:16:31;;;;;;;4.97;4.47;;;16.10;99.90;;;;;;5062748;28;20811;-39
2022/06/01 09:18:58;;;;;;;5.00;4.60;;;15.90;99.90;;;;;;5071987;28;20459;-40
2022/06/01 09:24:16;;;;;;;3.90;3.40;;;15.60;99.90;;;;;;5054494;28;20765;-39
2022/06/01 09:27:01;;;;;;;5.60;4.70;;;15.70;99.90;;;;;;5069213;28;20415;-39
2022/06/01 09:29:42;;;;;;;3.90;3.60;;;15.60;99.90;;;;;;5060819;28;21214;-39
2022/06/01 09:32:25;;;;;;;4.07;3.77;;;15.50;99.90;;;;;;5071951;28;20506;-39
2022/06/01 09:34:51;;;;;;;3.40;3.10;;;15.50;99.90;;;;;;5070194;28;20423;-41
2022/06/01 09:37:26;;;;;;;3.80;3.20;;;15.60;99.90;;;;;;5053515;28;20535;-39
2022/06/01 09:40:05;;;;;;;3.70;3.37;;;15.80;99.90;;;;;;5062474;28;20431;-40
2022/06/01 09:42:37;;;;;;;3.50;3.10;;;15.90;99.90;;;;;;5071699;28;20458;-40
2022/06/01 09:45:13;;;;;;;3.10;2.90;;;16.10;99.90;;;;;;5064066;28;20470;-39
2022/06/01 09:47:43;;;;;;;3.40;3.10;;;16.40;99.90;;;;;;5056446;28;20461;-41
2022/06/01 09:50:32;;;;;;;4.97;3.10;;;16.70;99.90;;;;;;5067602;28;20440;-40
2022/06/01 09:53:22;;;;;;;3.50;2.70;;;17.00;99.90;;;;;;5053380;28;20416;-40
2022/06/01 09:56:00;;;;;;;4.47;3.60;;;17.30;99.90;;;;;;5057425;28;20451;-40
2022/06/01 10:06:57;;;;;;;4.00;3.47;;;17.30;99.90;;;;;;5055780;28;20440;-39
2022/06/01 10:09:26;;;;;;;3.23;3.00;;;17.40;99.90;;;;;;5060479;28;20431;-39
2022/06/01 10:11:54;;;;;;;2.90;2.70;;;17.40;99.90;;;;;;5065025;28;20523;-39
2022/06/01 10:14:27;;;;;;;3.90;3.53;;;17.50;99.90;;;;;;5064436;28;20478;-39
2022/06/01 10:17:14;;;;;;;3.63;3.30;;;17.60;99.90;;;;;;5067424;28;20797;-40
2022/06/01 10:20:04;;;;;;;2.90;2.70;;;17.70;99.90;;;;;;5070946;28;20431;-39
2022/06/01 10:22:58;;;;;;;3.60;3.30;;;17.80;99.90;;;;;;5045829;28;20933;-41
2022/06/01 10:25:37;;;;;;;3.30;3.00;;;17.80;99.90;;;;;;5056557;28;20485;-38
2022/06/01 10:28:06;;;;;;;2.90;2.70;;;18.00;99.50;;;;;;5070218;28;20450;-37
2022/06/01 10:30:36;;;;;;;3.27;2.10;;;18.00;98.80;;;;;;5062789;28;20454;-39
2022/06/01 10:33:17;;;;;;;3.30;3.00;;;18.10;99.90;;;;;;5070877;28;20796;-39
2022/06/01 10:36:05;;;;;;;3.23;3.03;;;18.20;98.80;;;;;;5065266;28;20436;-38
2022/06/01 10:38:48;;;;;;;3.77;3.13;;;18.10;97.40;;;;;;5055970;28;20423;-37
2022/06/01 10:41:20;;;;;;;2.90;2.70;;;18.00;97.50;;;;;;5055596;28;21120;-39
2022/06/01 10:44:27;;;;;;;4.27;3.20;;;17.80;98.40;;;;;;5069866;28;20467;-41
2022/06/01 10:47:03;;;;;;;4.53;2.87;;;17.80;99.50;;;;;;5048879;28;20440;-38
2022/06/01 10:49:46;;;;;;;3.30;3.00;;;17.80;98.30;;;;;;5069334;28;20437;-38
2022/06/01 10:52:30;;;;;;;4.10;3.00;;;18.00;98.40;;;;;;5054876;28;20829;-40
2022/06/01 10:55:20;;;;;;;3.13;2.40;;;18.00;98.20;;;;;;5047922;28;20423;-40
2022/06/01 10:57:48;;;;;;;3.07;2.50;;;18.00;97.00;;;;;;5069633;28;20441;-37
2022/06/01 11:00:21;;;;;;;2.70;2.50;;;18.00;98.60;;;;;;5056657;28;20515;-40
2022/06/01 11:03:03;;;;;;;3.43;3.13;;;18.10;98.40;;;;;;5069885;28;20525;-40
2022/06/01 11:05:50;;;;;;;2.67;2.30;;;17.90;97.50;;;;;;5068367;28;20817;-41
2022/06/01 11:08:28;;;;;;;2.60;2.10;;;17.90;99.40;;;;;;5053905;28;20424;-39
2022/06/01 11:11:01;;;;;;;3.40;2.90;;;18.20;99.90;;;;;;5051412;28;20469;-38
2022/06/01 11:13:55;;;;;;;3.50;3.20;;;18.50;97.90;;;;;;5069757;28;20915;-39
2022/06/01 11:16:42;;;;;;;4.03;2.70;;;18.50;96.00;;;;;;5062673;28;20411;-39
2022/06/01 11:19:32;;;;;;;2.40;2.20;;;18.50;96.20;;;;;;5069883;28;20422;-41
2022/06/01 11:22:36;;;;;;;2.30;2.07;;;18.60;96.90;;;;;;5055779;28;20440;-40
2022/06/01 11:25:21;;;;;;;3.93;2.47;;;18.80;96.50;;;;;;5051080;28;20471;-40
2022/06/01 11:28:17;;;;;;;3.33;3.03;;;18.80;96.20;;;;;;5062293;28;20476;-40
2022/06/01 11:31:05;;;;;;;3.77;3.47;;;18.60;95.20;;;;;;5066252;28;20423;-43
2022/06/01 11:33:47;;;;;;;3.30;2.60;;;18.30;95.20;;;;;;5069637;28;20415;-38
2022/06/01 11:36:30;;;;;;;2.30;2.20;;;18.20;96.10;;;;;;5064809;28;20443;-40
2022/06/01 11:39:14;;;;;;;3.20;2.90;;;18.10;96.40;;;;;;5049942;28;20447;-38
2022/06/01 11:41:50;;;;;;;5.10;2.93;;;18.10;96.40;;;;;;5057174;28;20415;-40
2022/06/01 11:44:22;;;;;;;3.47;3.27;;;18.00;96.20;;;;;;5067570;28;20467;-37
2022/06/01 11:47:00;;;;;;;3.90;3.50;;;17.70;95.90;;;;;;5048932;28;20428;-41
2022/06/01 11:49:31;;;;;;;3.30;3.00;;;17.40;95.80;;;;;;5065877;28;20929;-39
2022/06/01 11:52:20;;;;;;;2.97;2.77;;;17.40;97.10;;;;;;5057712;28;20424;-41
2022/06/01 11:54:56;;;;;;;3.03;2.83;;;17.30;98.00;;;;;;5049482;28;20436;-40
2022/06/01 11:57:37;;;;;;;3.10;2.90;;;17.40;97.80;;;;;;5062452;28;20443;-42
2022/06/01 12:00:34;;;;;;;3.53;2.70;;;17.30;97.50;;;;;;5061905;28;20424;-41
2022/06/01 12:03:37;;;;;;;3.20;3.00;;;17.30;97.70;;;;;;5069023;28;20424;-38
2022/06/01 12:06:24;;;;;;;2.87;2.60;;;17.30;98.70;;;;;;5058756;28;20456;-40
2022/06/01 12:08:53;;;;;;;3.03;2.73;;;17.20;98.50;;;;;;5050410;28;20434;-40
2022/06/01 12:11:42;;;;;;;2.40;2.20;;;16.90;99.10;;;;;;5052486;28;20416;-41
2022/06/01 12:14:37;;;;;;;3.10;2.80;;;16.60;99.90;;;;;;5068987;28;20481;-38
2022/06/01 12:17:18;;;;;;;3.33;2.60;;;16.50;99.90;;;;;;5067113;28;20425;-40
2022/06/01 12:19:47;;;;;;;2.90;2.30;;;16.10;99.90;;;;;;5068532;28;20419;-40
2022/06/01 12:28:53;;;;;;;2.20;2.10;;;16.10;99.90;;;;;;5068416;28;20411;-39
2022/06/01 12:31:30;;;;;;;2.80;2.60;;;16.20;99.90;;;;;;5054718;28;20408;-39
2022/06/01 12:34:24;;;;;;;3.30;2.40;;;16.30;99.90;;;;;;5070253;28;20455;-40
2022/06/01 12:37:07;;;;;;;4.10;3.70;;;16.50;99.90;;;;;;5063360;28;20443;-38
2022/06/01 12:39:39;;;;;;;4.70;3.20;;;16.90;99.90;;;;;;5058188;28;20431;-39
2022/06/01 12:42:13;;;;;;;5.73;3.10;;;17.00;99.90;;;;;;5063898;28;20423;-37
2022/06/01 12:44:41;;;;;;;4.57;3.57;;;17.10;99.90;;;;;;5070489;28;20454;-40
2022/06/01 12:47:07;;;;;;;3.10;2.53;;;17.10;99.90;;;;;;5051804;28;20474;-40
2022/06/01 12:49:40;;;;;;;2.80;2.60;;;17.20;99.90;;;;;;5072141;28;20523;-40
2022/06/01 12:52:18;;;;;;;2.97;2.63;;;17.40;99.90;;;;;;5062675;28;20475;-41
2022/06/01 12:54:49;;;;;;;2.93;2.63;;;17.60;99.90;;;;;;5050506;28;20477;-42
2022/06/01 12:57:24;;;;;;;3.73;3.43;;;17.70;99.90;;;;;;5067793;28;20475;-39
2022/06/01 12:59:59;;;;;;;3.43;3.00;;;17.80;99.90;;;;;;5069436;28;20518;-40
2022/06/01 13:02:28;;;;;;;4.07;3.23;;;17.80;99.90;;;;;;5070908;28;20457;-40
2022/06/01 13:04:55;;;;;;;4.97;3.30;;;17.80;99.90;;;;;;5072407;28;20474;-39
2022/06/01 13:07:29;;;;;;;4.07;3.60;;;17.60;99.90;;;;;;5063293;28;20996;-39
2022/06/01 13:10:09;;;;;;;3.67;3.10;;;17.40;99.90;;;;;;5052563;28;20417;-39
2022/06/01 13:12:35;;;;;;;3.47;3.17;;;17.30;99.90;;;;;;5062292;28;20426;-39
2022/06/01 13:15:17;;;;;;;4.20;3.80;;;17.00;99.90;;;;;;5070621;28;20958;-39
2022/06/01 13:18:01;;;;;;;3.93;3.63;;;16.50;99.90;;;;;;5070383;28;20509;-41
2022/06/01 13:20:45;;;;;;;4.37;3.97;;;16.20;99.90;;;;;;5071970;28;20415;-41
2022/06/01 13:23:26;;;;;;;5.47;4.00;;;16.10;99.90;;;;;;5057671;28;20980;-39
2022/06/01 13:25:53;;;;;;;3.80;3.50;;;16.10;99.90;;;;;;5053183;28;20416;-41
2022/06/01 13:28:19;;;;;;;4.70;4.30;;;16.00;99.90;;;;;;5069898;28;21198;-40
2022/06/01 13:30:46;;;;;;;4.13;3.83;;;16.00;99.90;;;;;;5062958;28;20428;-42
2022/06/01 13:33:38;;;;;;;4.87;4.47;;;15.80;99.90;;;;;;5070928;28;20414;-41
2022/06/01 13:36:08;;;;;;;4.87;4.47;;;15.40;99.90;;;;;;5068725;28;20423;-41
2022/06/01 13:38:41;;;;;;;4.20;3.90;;;15.20;99.90;;;;;;5058513;28;20431;-44
2022/06/01 13:41:21;;;;;;;5.00;4.60;;;15.30;99.90;;;;;;5057915;28;20502;-42